createdAt,value
2022-07-29T00:00:13.475Z,102009.22
2022-07-29T00:02:45.622Z,102004.88
2022-07-29T00:05:17.984Z,102004.84
2022-07-29T00:07:49.967Z,101999.63
2022-07-29T00:10:22.228Z,102002.28
2022-07-29T00:12:54.253Z,101993.53
2022-07-29T00:15:27.560Z,101996.19
2022-07-29T00:17:59.584Z,102002.41
2022-07-29T00:20:31.591Z,101992.84
2022-07-29T00:23:03.615Z,101987.53
2022-07-29T00:25:35.654Z,101984.00
2022-07-29T00:28:07.636Z,101976.06
2022-07-29T00:30:39.665Z,101975.19
2022-07-29T00:33:11.641Z,101970.88
2022-07-29T00:35:46.173Z,101977.84
2022-07-29T00:38:21.194Z,101972.56
2022-07-29T00:40:53.566Z,101971.66
2022-07-29T00:43:25.694Z,101967.25
2022-07-29T00:45:57.659Z,101962.84
2022-07-29T00:48:29.683Z,101964.63
2022-07-29T00:51:05.011Z,101955.00
2022-07-29T00:53:37.883Z,101965.56
2022-07-29T00:56:09.848Z,101963.81
2022-07-29T00:58:41.985Z,101958.53
2022-07-29T01:01:14.095Z,101955.94
2022-07-29T01:03:46.133Z,101953.28
2022-07-29T01:06:19.554Z,101956.72
2022-07-29T01:08:52.437Z,101952.31
2022-07-29T01:11:24.879Z,101945.25
2022-07-29T01:13:57.519Z,101937.34
2022-07-29T01:16:38.069Z,101930.34
2022-07-29T01:19:58.438Z,101934.81
2022-07-29T01:23:00.889Z,101923.38
2022-07-29T01:26:12.078Z,101921.63
2022-07-29T01:29:07.467Z,101918.09
2022-07-29T01:32:22.558Z,101921.63
2022-07-29T01:35:21.026Z,101924.25
2022-07-29T01:38:08.285Z,101912.91
2022-07-29T01:40:50.843Z,101906.78
2022-07-29T01:43:31.611Z,101906.81
2022-07-29T01:46:08.393Z,101909.44
2022-07-29T01:48:47.422Z,101905.09
2022-07-29T01:51:28.304Z,101898.94
2022-07-29T01:54:11.817Z,101893.59
2022-07-29T01:56:46.558Z,101888.41
2022-07-29T01:59:20.166Z,101893.69
2022-07-29T02:01:56.424Z,101887.53
2022-07-29T02:04:30.688Z,101883.16
2022-07-29T02:07:07.345Z,101885.84
2022-07-29T02:09:40.734Z,101874.47
2022-07-29T02:12:14.513Z,101871.75
2022-07-29T02:14:51.877Z,101868.22
2022-07-29T02:17:45.106Z,101864.72
2022-07-29T02:20:18.001Z,101871.72
2022-07-29T02:22:53.384Z,101862.03
2022-07-29T02:25:37.309Z,101868.19
2022-07-29T02:28:10.923Z,101866.50
2022-07-29T02:30:45.145Z,101872.59
2022-07-29T02:33:19.734Z,101860.31
2022-07-29T02:35:52.221Z,101859.44
2022-07-29T02:38:45.734Z,101859.34
2022-07-29T02:41:56.877Z,101874.28
2022-07-29T02:44:32.723Z,101864.63
2022-07-29T02:47:41.348Z,101865.47
2022-07-29T02:50:23.715Z,101869.88
2022-07-29T02:53:02.451Z,101869.94
2022-07-29T02:55:49.264Z,101871.66
2022-07-29T02:59:09.273Z,101874.31
2022-07-29T03:01:44.817Z,101883.06
2022-07-29T03:04:20.630Z,101873.41
2022-07-29T03:06:54.498Z,101873.44
2022-07-29T03:09:29.183Z,101871.66
2022-07-29T03:12:05.097Z,101872.53
2022-07-29T03:14:38.164Z,101874.28
2022-07-29T03:17:11.051Z,101878.66
2022-07-29T03:19:43.548Z,101879.53
2022-07-29T03:22:16.058Z,101882.19
2022-07-29T03:24:51.205Z,101882.16
2022-07-29T03:27:23.279Z,101866.34
2022-07-29T03:29:55.242Z,101868.16
2022-07-29T03:32:28.416Z,101869.09
2022-07-29T03:35:00.728Z,101862.91
2022-07-29T03:37:34.429Z,101857.63
2022-07-29T03:40:10.211Z,101863.84
2022-07-29T03:42:45.319Z,101858.66
2022-07-29T03:45:20.344Z,101862.09
2022-07-29T03:48:01.298Z,101856.84
2022-07-29T03:50:35.182Z,101861.19
2022-07-29T03:53:07.319Z,101856.78
2022-07-29T03:55:46.261Z,101864.72
2022-07-29T03:58:20.714Z,101862.97
2022-07-29T04:00:53.355Z,101862.19
2022-07-29T04:03:25.698Z,101858.63
2022-07-29T04:06:07.160Z,101862.94
2022-07-29T04:08:39.308Z,101861.19
2022-07-29T04:11:11.466Z,101858.47
2022-07-29T04:13:43.459Z,101855.78
2022-07-29T04:16:15.551Z,101847.03
2022-07-29T04:18:47.659Z,101854.06
2022-07-29T04:21:19.719Z,101854.06
2022-07-29T04:23:53.063Z,101852.25
2022-07-29T04:26:26.046Z,101853.06
2022-07-29T04:28:58.016Z,101854.88
2022-07-29T04:31:30.115Z,101852.22
2022-07-29T04:34:02.167Z,101860.13
2022-07-29T04:36:34.378Z,101860.06
2022-07-29T04:39:06.608Z,101860.03
2022-07-29T04:41:38.658Z,101857.34
2022-07-29T04:44:10.853Z,101866.13
2022-07-29T04:46:43.041Z,101859.09
2022-07-29T04:49:15.123Z,101856.34
2022-07-29T04:51:47.172Z,101860.72
2022-07-29T04:54:19.628Z,101860.69
2022-07-29T04:56:51.812Z,101855.63
2022-07-29T04:59:23.850Z,101854.75
2022-07-29T05:01:55.917Z,101860.81
2022-07-29T05:04:27.932Z,101854.53
2022-07-29T05:06:59.910Z,101852.69
2022-07-29T05:09:33.293Z,101859.69
2022-07-29T05:12:05.700Z,101857.03
2022-07-29T05:14:37.728Z,101855.13
2022-07-29T05:17:09.694Z,101860.31
2022-07-29T05:19:41.739Z,101856.75
2022-07-29T05:22:13.757Z,101864.53
2022-07-29T05:24:45.774Z,101854.69
2022-07-29T05:27:17.742Z,101845.84
2022-07-29T05:29:49.725Z,101854.59
2022-07-29T05:32:21.751Z,101851.88
2022-07-29T05:34:53.770Z,101853.56
2022-07-29T05:37:25.740Z,101858.75
2022-07-29T05:39:59.185Z,101856.88
2022-07-29T05:42:31.470Z,101854.16
2022-07-29T05:45:04.012Z,101859.47
2022-07-29T05:47:36.270Z,101859.47
2022-07-29T05:50:09.047Z,101870.06
2022-07-29T05:52:41.105Z,101855.09
2022-07-29T05:55:13.172Z,101855.06
2022-07-29T05:57:46.534Z,101855.78
2022-07-29T06:00:18.558Z,101862.75
2022-07-29T06:02:50.686Z,101860.91
2022-07-29T06:05:22.707Z,101858.94
2022-07-29T06:07:54.798Z,101857.06
2022-07-29T06:10:27.899Z,101858.88
2022-07-29T06:13:00.025Z,101860.69
2022-07-29T06:15:31.989Z,101858.03
2022-07-29T06:18:04.309Z,101848.28
2022-07-29T06:20:36.738Z,101855.19
2022-07-29T06:23:09.048Z,101851.78
2022-07-29T06:25:42.129Z,101851.81
2022-07-29T06:28:14.433Z,101845.50
2022-07-29T06:30:46.443Z,101847.09
2022-07-29T06:33:20.087Z,101833.78
2022-07-29T06:35:54.985Z,101846.88
2022-07-29T06:38:31.006Z,101844.88
2022-07-29T06:41:05.978Z,101850.03
2022-07-29T06:43:52.020Z,101851.69
2022-07-29T06:46:24.828Z,101853.25
2022-07-29T06:48:56.876Z,101851.47
2022-07-29T06:51:28.939Z,101854.66
2022-07-29T06:54:03.301Z,101855.50
2022-07-29T06:56:45.025Z,101846.59
2022-07-29T06:59:17.081Z,101854.25
2022-07-29T07:01:49.097Z,101861.88
2022-07-29T07:04:21.392Z,101865.28
2022-07-29T07:06:53.509Z,101858.28
2022-07-29T07:09:25.480Z,101859.97
2022-07-29T07:12:12.213Z,101858.53
2022-07-29T07:14:45.682Z,101860.28
2022-07-29T07:17:17.660Z,101866.41
2022-07-29T07:19:49.619Z,101862.88
2022-07-29T07:22:21.608Z,101852.38
2022-07-29T07:24:53.604Z,101856.53
2022-07-29T07:27:25.535Z,101860.84
2022-07-29T07:29:57.825Z,101865.06
2022-07-29T07:32:30.079Z,101851.84
2022-07-29T07:35:02.338Z,101851.44
2022-07-29T07:37:34.881Z,101851.16
2022-07-29T07:40:08.337Z,101846.41
2022-07-29T07:42:41.637Z,101846.81
2022-07-29T07:45:16.098Z,101842.94
2022-07-29T07:47:48.693Z,101851.41
2022-07-29T07:50:20.688Z,101843.19
2022-07-29T07:52:56.114Z,101847.03
2022-07-29T07:55:28.244Z,101846.50
2022-07-29T07:58:00.220Z,101853.63
2022-07-29T08:00:33.409Z,101851.41
2022-07-29T08:03:05.805Z,101855.31
2022-07-29T08:05:49.376Z,101849.47
2022-07-29T08:08:21.992Z,101853.09
2022-07-29T08:10:54.100Z,101852.84
2022-07-29T08:13:31.551Z,101850.69
2022-07-29T08:16:12.508Z,101855.72
2022-07-29T08:18:46.565Z,101856.88
2022-07-29T08:21:18.923Z,101859.13
2022-07-29T08:23:59.905Z,101853.16
2022-07-29T08:26:32.849Z,101851.25
2022-07-29T08:29:04.898Z,101856.13
2022-07-29T08:31:41.022Z,101857.91
2022-07-29T08:34:14.159Z,101851.38
2022-07-29T08:36:46.217Z,101849.38
2022-07-29T08:39:24.986Z,101850.16
2022-07-29T08:41:57.773Z,101846.19
2022-07-29T08:44:31.001Z,101845.97
2022-07-29T08:47:03.522Z,101848.28
2022-07-29T08:49:37.005Z,101846.25
2022-07-29T08:52:12.505Z,101850.84
2022-07-29T08:54:45.413Z,101844.59
2022-07-29T08:57:18.535Z,101841.63
2022-07-29T08:59:55.398Z,101832.34
2022-07-29T09:02:34.727Z,101835.78
2022-07-29T09:05:08.844Z,101829.22
2022-07-29T09:07:44.322Z,101832.47
2022-07-29T09:10:16.414Z,101830.28
2022-07-29T09:12:49.933Z,101827.81
2022-07-29T09:15:22.138Z,101824.59
2022-07-29T09:17:54.283Z,101833.69
2022-07-29T09:20:26.719Z,101826.00
2022-07-29T09:23:09.027Z,101828.31
2022-07-29T09:25:42.718Z,101823.22
2022-07-29T09:28:19.906Z,101836.19
2022-07-29T09:30:57.515Z,101836.09
2022-07-29T09:33:40.375Z,101828.16
2022-07-29T09:36:12.945Z,101832.63
2022-07-29T09:39:00.185Z,101832.94
2022-07-29T09:41:50.432Z,101829.97
2022-07-29T09:44:23.840Z,101825.63
2022-07-29T09:47:08.224Z,101816.94
2022-07-29T09:49:59.407Z,101810.31
2022-07-29T09:52:31.932Z,101814.81
2022-07-29T09:55:13.785Z,101817.09
2022-07-29T09:57:50.573Z,101801.13
2022-07-29T10:00:24.193Z,101811.84
2022-07-29T10:03:02.606Z,101807.06
2022-07-29T10:05:36.180Z,101807.97
2022-07-29T10:08:10.685Z,101804.06
2022-07-29T10:10:44.005Z,101802.06
2022-07-29T10:13:16.831Z,101796.22
2022-07-29T10:15:51.929Z,101797.66
2022-07-29T10:18:24.125Z,101800.91
2022-07-29T10:20:57.029Z,101798.97
2022-07-29T10:23:30.976Z,101799.53
2022-07-29T10:26:20.637Z,101789.94
2022-07-29T10:28:52.628Z,101793.84
2022-07-29T10:31:40.839Z,101788.72
2022-07-29T10:34:29.310Z,101781.81
2022-07-29T10:37:45.784Z,101790.69
2022-07-29T10:40:42.302Z,101789.97
2022-07-29T10:43:25.626Z,101775.00
2022-07-29T10:46:00.799Z,101783.31
2022-07-29T10:48:32.855Z,101779.28
2022-07-29T10:51:06.928Z,101775.41
2022-07-29T10:56:44.937Z,101772.06
2022-07-29T10:59:22.807Z,101769.63
2022-07-29T11:02:10.869Z,101772.78
2022-07-29T11:04:48.643Z,101773.31
2022-07-29T11:07:23.278Z,101771.63
2022-07-29T11:10:14.077Z,101773.63
2022-07-29T11:12:48.492Z,101762.78
2022-07-29T11:15:24.988Z,101766.53
2022-07-29T11:18:01.299Z,101765.03
2022-07-29T11:20:50.116Z,101753.66
2022-07-29T11:23:33.858Z,101751.56
2022-07-29T11:29:26.056Z,101751.16
2022-07-29T11:32:18.145Z,101749.13
2022-07-29T11:35:37.008Z,101753.16
2022-07-29T11:38:31.777Z,101750.44
2022-07-29T11:41:26.066Z,101755.34
2022-07-29T11:44:01.574Z,101747.50
2022-07-29T11:46:54.107Z,101754.38
2022-07-29T11:49:32.582Z,101751.91
2022-07-29T11:52:05.852Z,101752.03
2022-07-29T11:54:57.971Z,101746.03
2022-07-29T11:57:37.232Z,101741.69
2022-07-29T12:00:12.100Z,101744.66
2022-07-29T12:02:48.483Z,101740.03
2022-07-29T12:05:51.917Z,101743.53
2022-07-29T12:08:26.935Z,101741.06
2022-07-29T12:10:59.082Z,101742.19
2022-07-29T12:13:40.089Z,101745.66
2022-07-29T12:16:14.702Z,101746.09
2022-07-29T12:19:00.624Z,101741.09
2022-07-29T12:21:56.869Z,101744.47
2022-07-29T12:24:45.434Z,101744.38
2022-07-29T12:27:19.365Z,101741.94
2022-07-29T12:30:07.434Z,101742.59
2022-07-29T12:32:48.374Z,101742.59
2022-07-29T12:35:22.304Z,101742.31
2022-07-29T12:37:55.852Z,101748.44
2022-07-29T12:40:27.995Z,101738.91
2022-07-29T12:43:12.992Z,101742.47
2022-07-29T12:45:49.627Z,101739.81
2022-07-29T12:48:38.995Z,101738.59
2022-07-29T12:51:15.403Z,101734.56
2022-07-29T12:54:24.162Z,101738.78
2022-07-29T12:57:01.179Z,101729.06
2022-07-29T12:59:33.457Z,101723.34
2022-07-29T13:02:06.093Z,101724.84
2022-07-29T13:04:38.137Z,101727.56
2022-07-29T13:07:10.474Z,101725.66
2022-07-29T13:09:45.457Z,101719.22
2022-07-29T13:12:17.447Z,101721.13
2022-07-29T13:14:51.233Z,101726.78
2022-07-29T13:17:24.384Z,101723.44
2022-07-29T13:20:13.632Z,101729.09
2022-07-29T13:22:49.339Z,101712.88
2022-07-29T13:25:33.220Z,101715.84
2022-07-29T13:28:05.688Z,101709.63
2022-07-29T13:30:38.779Z,101700.03
2022-07-29T13:33:16.756Z,101704.72
2022-07-29T13:35:48.979Z,101703.97
2022-07-29T13:38:21.004Z,101709.22
2022-07-29T13:40:53.129Z,101711.81
2022-07-29T13:43:25.355Z,101710.47
2022-07-29T13:45:57.501Z,101708.47
2022-07-29T13:48:29.475Z,101712.88
2022-07-29T13:51:01.953Z,101714.59
2022-07-29T13:53:34.053Z,101714.13
2022-07-29T13:56:07.052Z,101707.28
2022-07-29T13:58:39.143Z,101707.13
2022-07-29T14:01:12.239Z,101710.28
2022-07-29T14:03:45.764Z,101710.09
2022-07-29T14:06:18.284Z,101699.59
2022-07-29T14:08:54.367Z,101697.50
2022-07-29T14:11:26.435Z,101701.47
2022-07-29T14:13:58.465Z,101703.97
2022-07-29T14:16:30.524Z,101703.75
2022-07-29T14:19:02.914Z,101703.56
2022-07-29T14:21:35.718Z,101699.88
2022-07-29T14:24:17.931Z,101701.69
2022-07-29T14:26:54.984Z,101691.19
2022-07-29T14:29:37.455Z,101686.47
2022-07-29T14:32:12.553Z,101686.41
2022-07-29T14:34:44.628Z,101682.84
2022-07-29T14:37:16.813Z,101681.03
2022-07-29T14:39:48.781Z,101680.75
2022-07-29T14:42:20.848Z,101680.56
2022-07-29T14:44:52.826Z,101685.16
2022-07-29T14:47:25.153Z,101679.31
2022-07-29T14:49:57.206Z,101682.94
2022-07-29T14:52:29.213Z,101673.44
2022-07-29T14:55:01.273Z,101681.44
2022-07-29T14:57:33.306Z,101679.00
2022-07-29T15:00:10.021Z,101680.75
2022-07-29T15:03:00.860Z,101680.97
2022-07-29T15:05:33.719Z,101687.28
2022-07-29T15:08:05.806Z,101681.69
2022-07-29T15:10:37.875Z,101681.19
2022-07-29T15:13:09.859Z,101676.94
2022-07-29T15:15:42.373Z,101679.75
2022-07-29T15:18:14.413Z,101683.75
2022-07-29T15:20:47.429Z,101684.53
2022-07-29T15:23:19.500Z,101682.53
2022-07-29T15:25:51.454Z,101682.78
2022-07-29T15:28:23.512Z,101680.38
2022-07-29T15:30:55.626Z,101678.03
2022-07-29T15:33:28.948Z,101675.44
2022-07-29T15:36:00.905Z,101671.03
2022-07-29T15:38:32.860Z,101670.28
2022-07-29T15:41:04.960Z,101669.50
2022-07-29T15:43:36.947Z,101665.47
2022-07-29T15:46:27.368Z,101659.25
2022-07-29T15:48:59.608Z,101664.88
2022-07-29T15:51:33.458Z,101674.63
2022-07-29T15:54:06.304Z,101669.19
2022-07-29T15:56:38.814Z,101665.66
2022-07-29T15:59:10.785Z,101662.97
2022-07-29T16:01:54.798Z,101654.00
2022-07-29T16:04:27.758Z,101652.59
2022-07-29T16:07:00.206Z,101653.22
2022-07-29T16:09:32.590Z,101650.72
2022-07-29T16:12:14.985Z,101652.34
2022-07-29T16:14:49.622Z,101646.56
2022-07-29T16:17:21.725Z,101646.47
2022-07-29T16:19:54.445Z,101650.53
2022-07-29T16:22:26.446Z,101648.72
2022-07-29T16:24:58.448Z,101648.97
2022-07-29T16:27:34.297Z,101651.91
2022-07-29T16:30:10.495Z,101647.72
2022-07-29T16:32:42.452Z,101652.53
2022-07-29T16:35:14.568Z,101642.94
2022-07-29T16:37:46.536Z,101641.38
2022-07-29T16:40:18.576Z,101648.34
2022-07-29T16:42:50.746Z,101647.47
2022-07-29T16:45:22.825Z,101641.72
2022-07-29T16:48:00.188Z,101649.59
2022-07-29T16:50:33.404Z,101646.31
2022-07-29T16:53:05.355Z,101657.59
2022-07-29T16:55:37.536Z,101656.66
2022-07-29T16:58:10.143Z,101656.81
2022-07-29T17:00:42.219Z,101662.47
2022-07-29T17:03:14.208Z,101649.75
2022-07-29T17:05:52.714Z,101651.91
2022-07-29T17:08:26.151Z,101654.72
2022-07-29T17:10:58.127Z,101651.63
2022-07-29T17:13:30.076Z,101654.00
2022-07-29T17:16:02.187Z,101652.06
2022-07-29T17:18:34.167Z,101654.28
2022-07-29T17:21:06.261Z,101654.94
2022-07-29T17:23:38.207Z,101653.56
2022-07-29T17:26:10.262Z,101662.94
2022-07-29T17:28:42.669Z,101661.63
2022-07-29T17:31:15.164Z,101659.41
2022-07-29T17:33:47.233Z,101665.19
2022-07-29T17:36:25.102Z,101667.19
2022-07-29T17:39:08.593Z,101665.66
2022-07-29T17:41:41.131Z,101667.59
2022-07-29T17:44:13.630Z,101666.78
2022-07-29T17:46:45.679Z,101660.88
2022-07-29T17:49:17.748Z,101659.13
2022-07-29T17:51:50.222Z,101663.53
2022-07-29T17:54:22.277Z,101658.41
2022-07-29T17:56:58.946Z,101660.28
2022-07-29T17:59:31.159Z,101649.75
2022-07-29T18:02:03.221Z,101656.81
2022-07-29T18:04:35.234Z,101658.75
2022-07-29T18:07:07.332Z,101654.13
2022-07-29T18:09:42.688Z,101651.41
2022-07-29T18:12:14.643Z,101652.28
2022-07-29T18:14:46.730Z,101652.47
2022-07-29T18:17:18.752Z,101649.06
2022-07-29T18:19:51.527Z,101654.47
2022-07-29T18:22:23.626Z,101661.47
2022-07-29T18:24:55.605Z,101662.72
2022-07-29T18:27:27.681Z,101654.94
2022-07-29T18:29:59.684Z,101652.34
2022-07-29T18:32:37.042Z,101659.63
2022-07-29T18:35:09.604Z,101663.06
2022-07-29T18:38:01.866Z,101665.66
2022-07-29T18:40:33.621Z,101674.44
2022-07-29T18:43:06.947Z,101685.03
2022-07-29T18:45:39.564Z,101682.44
2022-07-29T18:48:12.633Z,101687.84
2022-07-29T18:50:45.327Z,101693.03
2022-07-29T18:53:17.543Z,101698.56
2022-07-29T18:55:49.502Z,101697.75
2022-07-29T18:58:21.737Z,101701.38
2022-07-29T19:00:53.816Z,101705.91
2022-07-29T19:03:25.864Z,101706.88
2022-07-29T19:05:57.853Z,101709.78
2022-07-29T19:08:29.815Z,101714.31
2022-07-29T19:11:01.763Z,101717.84
2022-07-29T19:13:36.936Z,101721.38
2022-07-29T19:16:12.074Z,101730.41
2022-07-29T19:18:44.797Z,101729.59
2022-07-29T19:21:17.387Z,101730.66
2022-07-29T19:24:00.393Z,101734.13
2022-07-29T19:26:46.504Z,101736.34
2022-07-29T19:29:18.816Z,101739.25
2022-07-29T19:31:51.049Z,101741.13
2022-07-29T19:34:23.084Z,101738.47
2022-07-29T19:36:55.066Z,101741.25
2022-07-29T19:39:34.950Z,101742.03
2022-07-29T19:42:08.499Z,101751.72
2022-07-29T19:44:40.510Z,101746.19
2022-07-29T19:47:12.477Z,101748.06
2022-07-29T19:49:49.452Z,101747.63
2022-07-29T19:52:21.520Z,101747.50
2022-07-29T19:54:53.703Z,101749.41
2022-07-29T19:57:25.677Z,101744.09
2022-07-29T19:59:58.380Z,101740.50
2022-07-29T20:02:30.410Z,101743.97
2022-07-29T20:05:02.762Z,101746.88
2022-07-29T20:07:34.728Z,101735.47
2022-07-29T20:10:09.267Z,101741.03
2022-07-29T20:12:42.740Z,101742.06
2022-07-29T20:15:16.586Z,101741.16
2022-07-29T20:17:48.696Z,101743.97
2022-07-29T20:20:22.356Z,101732.34
2022-07-29T20:22:54.781Z,101734.16
2022-07-29T20:25:26.810Z,101736.75
2022-07-29T20:27:58.765Z,101741.41
2022-07-29T20:30:30.768Z,101743.19
2022-07-29T20:33:02.986Z,101746.78
2022-07-29T20:35:35.427Z,101747.72
2022-07-29T20:38:07.413Z,101749.59
2022-07-29T20:40:39.590Z,101754.03
2022-07-29T20:43:11.757Z,101751.38
2022-07-29T20:45:43.766Z,101758.50
2022-07-29T20:48:15.719Z,101759.53
2022-07-29T20:50:48.910Z,101757.75
2022-07-29T20:53:21.067Z,101761.63
2022-07-29T20:55:53.028Z,101758.03
2022-07-29T20:58:25.010Z,101761.63
2022-07-29T21:00:56.981Z,101760.75
2022-07-29T21:03:28.995Z,101763.41
2022-07-29T21:06:01.024Z,101760.81
2022-07-29T21:08:33.094Z,101762.59
2022-07-29T21:11:05.651Z,101767.84
2022-07-29T21:13:41.094Z,101768.19
2022-07-29T21:16:14.805Z,101779.00
2022-07-29T21:18:47.797Z,101775.47
2022-07-29T21:21:19.943Z,101776.44
2022-07-29T21:23:52.682Z,101777.25
2022-07-29T21:26:24.706Z,101770.09
2022-07-29T21:28:56.659Z,101758.53
2022-07-29T21:31:28.749Z,101762.94
2022-07-29T21:34:00.686Z,101770.03
2022-07-29T21:36:48.947Z,101768.41
2022-07-29T21:39:21.061Z,101764.03
2022-07-29T21:41:53.089Z,101764.94
2022-07-29T21:44:25.059Z,101760.50
2022-07-29T21:46:57.272Z,101762.28
2022-07-29T21:49:29.536Z,101760.50
2022-07-29T21:52:01.721Z,101774.81
2022-07-29T21:54:33.765Z,101779.22
2022-07-29T21:57:06.037Z,101777.53
2022-07-29T21:59:38.258Z,101772.34
2022-07-29T22:02:10.257Z,101771.47
2022-07-29T22:04:42.247Z,101776.66
2022-07-29T22:07:14.347Z,101762.50
2022-07-29T22:09:46.329Z,101758.16
2022-07-29T22:12:18.304Z,101761.91
2022-07-29T22:14:50.260Z,101760.41
2022-07-29T22:17:23.466Z,101757.97
2022-07-29T22:19:55.580Z,101758.78
2022-07-29T22:22:27.900Z,101761.56
2022-07-29T22:24:59.849Z,101758.03
2022-07-29T22:27:31.867Z,101750.25
2022-07-29T22:30:06.980Z,101760.84
2022-07-29T22:32:39.041Z,101755.56
2022-07-29T22:35:11.661Z,101746.91
2022-07-29T22:37:43.677Z,101758.63
2022-07-29T22:40:15.687Z,101750.63
2022-07-29T22:42:47.762Z,101749.72
2022-07-29T22:45:19.900Z,101742.78
2022-07-29T22:47:57.490Z,101748.16
2022-07-29T22:50:31.480Z,101745.50
2022-07-29T22:53:03.505Z,101748.16
2022-07-29T22:55:35.449Z,101741.19
2022-07-29T22:58:07.434Z,101743.16
2022-07-29T23:00:39.451Z,101756.63
2022-07-29T23:03:11.410Z,101753.22
2022-07-29T23:05:43.375Z,101758.53
2022-07-29T23:08:15.372Z,101755.81
2022-07-29T23:10:47.502Z,101753.16
2022-07-29T23:13:19.495Z,101755.09
2022-07-29T23:15:51.455Z,101747.97
2022-07-29T23:18:23.487Z,101746.13
2022-07-29T23:20:55.546Z,101755.81
2022-07-29T23:23:28.465Z,101748.78
2022-07-29T23:26:04.613Z,101744.53
2022-07-29T23:28:36.627Z,101745.44
2022-07-29T23:31:08.656Z,101746.38
2022-07-29T23:33:43.517Z,101749.94
2022-07-29T23:36:15.553Z,101743.00
2022-07-29T23:38:48.384Z,101743.88
2022-07-29T23:41:21.531Z,101738.59
2022-07-29T23:43:53.543Z,101743.16
2022-07-29T23:46:25.543Z,101742.22
2022-07-29T23:48:57.570Z,101736.97
2022-07-29T23:51:30.402Z,101736.97
2022-07-29T23:54:02.415Z,101730.81
2022-07-29T23:56:34.423Z,101737.22
2022-07-29T23:59:06.485Z,101735.50
